sensor_id;sensor_type;location;lat;lon;timestamp;P1;durP1;ratioP1;P2;durP2;ratioP2
17598;SDS011;8918;52.092;5.232;2023-12-29T00:02:11;10.27;;;2.00;;
17598;SDS011;8918;52.092;5.232;2023-12-29T00:04:37;8.37;;;2.20;;
17598;SDS011;8918;52.092;5.232;2023-12-29T00:07:03;10.13;;;2.17;;
17598;SDS011;8918;52.092;5.232;2023-12-29T00:09:29;11.53;;;2.50;;
17598;SDS011;8918;52.092;5.232;2023-12-29T00:11:54;9.27;;;1.93;;
17598;SDS011;8918;52.092;5.232;2023-12-29T00:14:20;9.73;;;2.60;;
17598;SDS011;8918;52.092;5.232;2023-12-29T00:16:46;8.90;;;2.20;;
17598;SDS011;8918;52.092;5.232;2023-12-29T00:19:12;10.63;;;2.50;;
17598;SDS011;8918;52.092;5.232;2023-12-29T00:21:37;9.83;;;2.20;;
17598;SDS011;8918;52.092;5.232;2023-12-29T00:24:06;11.37;;;2.70;;
17598;SDS011;8918;52.092;5.232;2023-12-29T00:26:32;12.63;;;2.40;;
17598;SDS011;8918;52.092;5.232;2023-12-29T00:28:57;11.33;;;2.70;;
17598;SDS011;8918;52.092;5.232;2023-12-29T00:31:23;8.53;;;2.13;;
17598;SDS011;8918;52.092;5.232;2023-12-29T00:33:49;10.10;;;2.30;;
17598;SDS011;8918;52.092;5.232;2023-12-29T00:36:17;13.43;;;2.33;;
17598;SDS011;8918;52.092;5.232;2023-12-29T00:38:44;10.90;;;2.90;;
17598;SDS011;8918;52.092;5.232;2023-12-29T00:41:10;12.67;;;2.60;;
17598;SDS011;8918;52.092;5.232;2023-12-29T00:43:36;13.83;;;2.43;;
17598;SDS011;8918;52.092;5.232;2023-12-29T00:46:02;10.70;;;2.70;;
17598;SDS011;8918;52.092;5.232;2023-12-29T00:48:28;9.47;;;2.67;;
17598;SDS011;8918;52.092;5.232;2023-12-29T00:50:54;7.20;;;1.93;;
17598;SDS011;8918;52.092;5.232;2023-12-29T00:53:20;10.10;;;2.60;;
17598;SDS011;8918;52.092;5.232;2023-12-29T00:55:45;9.50;;;2.60;;
17598;SDS011;8918;52.092;5.232;2023-12-29T00:58:11;11.90;;;2.63;;
17598;SDS011;8918;52.092;5.232;2023-12-29T01:00:37;9.83;;;2.70;;
17598;SDS011;8918;52.092;5.232;2023-12-29T01:03:02;11.20;;;2.47;;
17598;SDS011;8918;52.092;5.232;2023-12-29T01:05:28;8.27;;;2.33;;
17598;SDS011;8918;52.092;5.232;2023-12-29T01:07:54;9.53;;;2.10;;
17598;SDS011;8918;52.092;5.232;2023-12-29T01:10:19;7.13;;;2.60;;
17598;SDS011;8918;52.092;5.232;2023-12-29T01:12:45;9.63;;;2.03;;
17598;SDS011;8918;52.092;5.232;2023-12-29T01:15:11;7.30;;;2.10;;
17598;SDS011;8918;52.092;5.232;2023-12-29T01:17:36;9.23;;;2.50;;
17598;SDS011;8918;52.092;5.232;2023-12-29T01:20:02;10.57;;;2.50;;
17598;SDS011;8918;52.092;5.232;2023-12-29T01:22:30;11.40;;;2.90;;
17598;SDS011;8918;52.092;5.232;2023-12-29T01:24:58;10.80;;;2.60;;
17598;SDS011;8918;52.092;5.232;2023-12-29T01:27:24;11.47;;;2.30;;
17598;SDS011;8918;52.092;5.232;2023-12-29T01:29:50;13.33;;;2.47;;
17598;SDS011;8918;52.092;5.232;2023-12-29T01:32:17;8.10;;;2.07;;
17598;SDS011;8918;52.092;5.232;2023-12-29T01:34:43;7.67;;;2.17;;
17598;SDS011;8918;52.092;5.232;2023-12-29T01:37:09;10.03;;;2.40;;
17598;SDS011;8918;52.092;5.232;2023-12-29T01:39:34;9.80;;;2.30;;
17598;SDS011;8918;52.092;5.232;2023-12-29T01:42:00;10.27;;;2.50;;
17598;SDS011;8918;52.092;5.232;2023-12-29T01:44:26;7.27;;;2.50;;
17598;SDS011;8918;52.092;5.232;2023-12-29T01:46:53;9.33;;;2.43;;
17598;SDS011;8918;52.092;5.232;2023-12-29T01:49:21;9.50;;;2.60;;
17598;SDS011;8918;52.092;5.232;2023-12-29T01:51:49;8.27;;;2.20;;
17598;SDS011;8918;52.092;5.232;2023-12-29T01:54:16;12.23;;;2.40;;
17598;SDS011;8918;52.092;5.232;2023-12-29T01:56:43;7.57;;;2.17;;
17598;SDS011;8918;52.092;5.232;2023-12-29T01:59:09;8.40;;;2.40;;
17598;SDS011;8918;52.092;5.232;2023-12-29T02:01:36;8.07;;;2.30;;
17598;SDS011;8918;52.092;5.232;2023-12-29T02:04:05;9.00;;;2.63;;
17598;SDS011;8918;52.092;5.232;2023-12-29T02:06:31;7.00;;;2.10;;
17598;SDS011;8918;52.092;5.232;2023-12-29T02:09:00;9.30;;;2.57;;
17598;SDS011;8918;52.092;5.232;2023-12-29T02:11:27;9.17;;;2.13;;
17598;SDS011;8918;52.092;5.232;2023-12-29T02:13:52;9.40;;;2.20;;
17598;SDS011;8918;52.092;5.232;2023-12-29T02:18:59;9.10;;;2.37;;
17598;SDS011;8918;52.092;5.232;2023-12-29T02:21:27;10.97;;;2.40;;
17598;SDS011;8918;52.092;5.232;2023-12-29T02:23:53;7.57;;;2.40;;
17598;SDS011;8918;52.092;5.232;2023-12-29T02:26:19;11.10;;;2.47;;
17598;SDS011;8918;52.092;5.232;2023-12-29T02:28:49;7.27;;;2.50;;
17598;SDS011;8918;52.092;5.232;2023-12-29T02:31:22;9.60;;;2.80;;
17598;SDS011;8918;52.092;5.232;2023-12-29T02:33:52;11.40;;;2.90;;
17598;SDS011;8918;52.092;5.232;2023-12-29T02:36:18;7.03;;;2.50;;
17598;SDS011;8918;52.092;5.232;2023-12-29T02:38:46;11.90;;;2.77;;
17598;SDS011;8918;52.092;5.232;2023-12-29T02:41:11;11.47;;;2.57;;
17598;SDS011;8918;52.092;5.232;2023-12-29T02:43:42;8.10;;;3.03;;
17598;SDS011;8918;52.092;5.232;2023-12-29T02:46:07;12.13;;;3.10;;
17598;SDS011;8918;52.092;5.232;2023-12-29T02:48:33;10.17;;;2.57;;
17598;SDS011;8918;52.092;5.232;2023-12-29T02:50:58;9.07;;;2.80;;
17598;SDS011;8918;52.092;5.232;2023-12-29T02:53:24;13.60;;;2.80;;
17598;SDS011;8918;52.092;5.232;2023-12-29T02:55:49;12.03;;;3.00;;
17598;SDS011;8918;52.092;5.232;2023-12-29T02:58:15;12.60;;;3.03;;
17598;SDS011;8918;52.092;5.232;2023-12-29T03:00:41;13.57;;;3.07;;
17598;SDS011;8918;52.092;5.232;2023-12-29T03:03:06;14.97;;;3.60;;
17598;SDS011;8918;52.092;5.232;2023-12-29T03:05:32;14.43;;;3.23;;
17598;SDS011;8918;52.092;5.232;2023-12-29T03:07:57;15.53;;;3.97;;
17598;SDS011;8918;52.092;5.232;2023-12-29T03:10:23;14.27;;;3.13;;
17598;SDS011;8918;52.092;5.232;2023-12-29T03:12:48;11.60;;;3.13;;
17598;SDS011;8918;52.092;5.232;2023-12-29T03:15:14;14.93;;;3.63;;
17598;SDS011;8918;52.092;5.232;2023-12-29T03:17:40;13.73;;;3.30;;
17598;SDS011;8918;52.092;5.232;2023-12-29T03:20:06;17.00;;;3.23;;
17598;SDS011;8918;52.092;5.232;2023-12-29T03:22:32;13.53;;;3.50;;
17598;SDS011;8918;52.092;5.232;2023-12-29T03:24:58;12.30;;;2.97;;
17598;SDS011;8918;52.092;5.232;2023-12-29T03:27:23;13.40;;;3.43;;
17598;SDS011;8918;52.092;5.232;2023-12-29T03:29:49;10.40;;;2.80;;
17598;SDS011;8918;52.092;5.232;2023-12-29T03:32:15;11.93;;;3.47;;
17598;SDS011;8918;52.092;5.232;2023-12-29T03:34:40;12.00;;;2.87;;
17598;SDS011;8918;52.092;5.232;2023-12-29T03:37:06;11.73;;;2.97;;
17598;SDS011;8918;52.092;5.232;2023-12-29T03:39:32;15.90;;;3.40;;
17598;SDS011;8918;52.092;5.232;2023-12-29T03:42:00;16.33;;;3.00;;
17598;SDS011;8918;52.092;5.232;2023-12-29T03:44:26;17.27;;;2.90;;
17598;SDS011;8918;52.092;5.232;2023-12-29T03:46:51;15.57;;;2.80;;
17598;SDS011;8918;52.092;5.232;2023-12-29T03:49:17;18.60;;;3.33;;
17598;SDS011;8918;52.092;5.232;2023-12-29T03:51:44;15.37;;;2.90;;
17598;SDS011;8918;52.092;5.232;2023-12-29T03:54:11;14.57;;;2.90;;
17598;SDS011;8918;52.092;5.232;2023-12-29T03:56:36;16.53;;;3.00;;
17598;SDS011;8918;52.092;5.232;2023-12-29T03:59:02;16.30;;;3.53;;
17598;SDS011;8918;52.092;5.232;2023-12-29T04:01:28;12.50;;;2.50;;
17598;SDS011;8918;52.092;5.232;2023-12-29T04:03:53;10.53;;;2.90;;
17598;SDS011;8918;52.092;5.232;2023-12-29T04:06:19;11.23;;;2.50;;
17598;SDS011;8918;52.092;5.232;2023-12-29T04:08:44;13.50;;;3.00;;
17598;SDS011;8918;52.092;5.232;2023-12-29T04:11:10;15.93;;;2.97;;
17598;SDS011;8918;52.092;5.232;2023-12-29T04:13:37;15.47;;;3.20;;
17598;SDS011;8918;52.092;5.232;2023-12-29T04:16:03;21.87;;;3.33;;
17598;SDS011;8918;52.092;5.232;2023-12-29T04:18:29;14.80;;;3.00;;
17598;SDS011;8918;52.092;5.232;2023-12-29T04:20:55;15.63;;;3.10;;
17598;SDS011;8918;52.092;5.232;2023-12-29T04:23:20;18.57;;;3.23;;
17598;SDS011;8918;52.092;5.232;2023-12-29T04:25:46;16.63;;;3.03;;
17598;SDS011;8918;52.092;5.232;2023-12-29T04:28:11;17.33;;;3.60;;
17598;SDS011;8918;52.092;5.232;2023-12-29T04:30:37;14.60;;;3.70;;
17598;SDS011;8918;52.092;5.232;2023-12-29T04:33:03;13.93;;;3.30;;
17598;SDS011;8918;52.092;5.232;2023-12-29T04:35:29;18.10;;;3.50;;
17598;SDS011;8918;52.092;5.232;2023-12-29T04:37:55;14.30;;;3.23;;
17598;SDS011;8918;52.092;5.232;2023-12-29T04:40:20;17.60;;;3.63;;
17598;SDS011;8918;52.092;5.232;2023-12-29T04:42:46;13.40;;;3.07;;
17598;SDS011;8918;52.092;5.232;2023-12-29T04:45:11;13.07;;;3.13;;
17598;SDS011;8918;52.092;5.232;2023-12-29T04:47:37;16.67;;;3.30;;
17598;SDS011;8918;52.092;5.232;2023-12-29T04:50:03;19.40;;;3.73;;
17598;SDS011;8918;52.092;5.232;2023-12-29T04:52:30;16.37;;;3.43;;
17598;SDS011;8918;52.092;5.232;2023-12-29T04:54:56;14.17;;;3.30;;
17598;SDS011;8918;52.092;5.232;2023-12-29T04:57:22;21.13;;;3.60;;
17598;SDS011;8918;52.092;5.232;2023-12-29T04:59:47;18.60;;;3.57;;
17598;SDS011;8918;52.092;5.232;2023-12-29T05:02:13;19.80;;;3.30;;
17598;SDS011;8918;52.092;5.232;2023-12-29T05:04:39;24.10;;;4.13;;
17598;SDS011;8918;52.092;5.232;2023-12-29T05:07:08;13.10;;;3.00;;
17598;SDS011;8918;52.092;5.232;2023-12-29T05:09:34;22.87;;;3.37;;
17598;SDS011;8918;52.092;5.232;2023-12-29T05:11:59;17.13;;;3.80;;
17598;SDS011;8918;52.092;5.232;2023-12-29T05:14:25;17.13;;;3.40;;
17598;SDS011;8918;52.092;5.232;2023-12-29T05:16:50;17.03;;;3.27;;
17598;SDS011;8918;52.092;5.232;2023-12-29T05:19:16;17.67;;;3.20;;
17598;SDS011;8918;52.092;5.232;2023-12-29T05:21:42;20.50;;;3.10;;
17598;SDS011;8918;52.092;5.232;2023-12-29T05:24:07;16.23;;;3.40;;
17598;SDS011;8918;52.092;5.232;2023-12-29T05:26:33;17.33;;;3.17;;
17598;SDS011;8918;52.092;5.232;2023-12-29T05:28:58;17.33;;;3.00;;
17598;SDS011;8918;52.092;5.232;2023-12-29T05:31:24;17.63;;;3.27;;
17598;SDS011;8918;52.092;5.232;2023-12-29T05:33:50;17.17;;;3.00;;
17598;SDS011;8918;52.092;5.232;2023-12-29T05:36:16;17.53;;;3.47;;
17598;SDS011;8918;52.092;5.232;2023-12-29T05:38:43;13.10;;;3.33;;
17598;SDS011;8918;52.092;5.232;2023-12-29T05:41:12;20.03;;;3.37;;
17598;SDS011;8918;52.092;5.232;2023-12-29T05:43:38;16.70;;;2.40;;
17598;SDS011;8918;52.092;5.232;2023-12-29T05:46:08;16.13;;;2.73;;
17598;SDS011;8918;52.092;5.232;2023-12-29T05:48:40;13.13;;;3.13;;
17598;SDS011;8918;52.092;5.232;2023-12-29T05:51:12;19.37;;;3.50;;
17598;SDS011;8918;52.092;5.232;2023-12-29T05:53:41;11.90;;;2.70;;
17598;SDS011;8918;52.092;5.232;2023-12-29T05:56:06;12.03;;;2.73;;
17598;SDS011;8918;52.092;5.232;2023-12-29T05:58:32;14.00;;;2.80;;
17598;SDS011;8918;52.092;5.232;2023-12-29T06:00:58;11.23;;;2.70;;
17598;SDS011;8918;52.092;5.232;2023-12-29T06:03:25;12.57;;;3.37;;
17598;SDS011;8918;52.092;5.232;2023-12-29T06:05:51;15.47;;;3.57;;
17598;SDS011;8918;52.092;5.232;2023-12-29T06:08:17;14.80;;;3.50;;
17598;SDS011;8918;52.092;5.232;2023-12-29T06:10:42;16.80;;;3.43;;
17598;SDS011;8918;52.092;5.232;2023-12-29T06:13:08;19.37;;;3.20;;
17598;SDS011;8918;52.092;5.232;2023-12-29T06:15:33;14.87;;;2.80;;
17598;SDS011;8918;52.092;5.232;2023-12-29T06:17:59;14.10;;;2.93;;
17598;SDS011;8918;52.092;5.232;2023-12-29T06:20:25;16.07;;;3.37;;
17598;SDS011;8918;52.092;5.232;2023-12-29T06:22:51;12.90;;;2.93;;
17598;SDS011;8918;52.092;5.232;2023-12-29T06:25:16;13.33;;;2.73;;
17598;SDS011;8918;52.092;5.232;2023-12-29T06:27:42;10.97;;;2.70;;
17598;SDS011;8918;52.092;5.232;2023-12-29T06:30:08;15.93;;;2.90;;
17598;SDS011;8918;52.092;5.232;2023-12-29T06:32:35;15.07;;;3.17;;
17598;SDS011;8918;52.092;5.232;2023-12-29T06:35:01;10.70;;;2.77;;
17598;SDS011;8918;52.092;5.232;2023-12-29T06:37:28;11.47;;;3.20;;
17598;SDS011;8918;52.092;5.232;2023-12-29T06:39:53;11.47;;;2.70;;
17598;SDS011;8918;52.092;5.232;2023-12-29T06:42:19;13.43;;;3.40;;
17598;SDS011;8918;52.092;5.232;2023-12-29T06:44:45;9.53;;;2.60;;
17598;SDS011;8918;52.092;5.232;2023-12-29T06:47:11;14.10;;;2.90;;
17598;SDS011;8918;52.092;5.232;2023-12-29T06:49:37;11.27;;;2.83;;
17598;SDS011;8918;52.092;5.232;2023-12-29T06:52:04;11.53;;;3.07;;
17598;SDS011;8918;52.092;5.232;2023-12-29T06:54:30;11.73;;;3.13;;
17598;SDS011;8918;52.092;5.232;2023-12-29T06:56:56;9.87;;;2.70;;
17598;SDS011;8918;52.092;5.232;2023-12-29T06:59:22;10.57;;;2.60;;
17598;SDS011;8918;52.092;5.232;2023-12-29T07:01:48;11.23;;;2.60;;
17598;SDS011;8918;52.092;5.232;2023-12-29T07:04:14;10.80;;;2.33;;
17598;SDS011;8918;52.092;5.232;2023-12-29T07:06:40;11.20;;;2.40;;
17598;SDS011;8918;52.092;5.232;2023-12-29T07:09:06;6.67;;;2.07;;
17598;SDS011;8918;52.092;5.232;2023-12-29T07:11:33;10.57;;;2.60;;
17598;SDS011;8918;52.092;5.232;2023-12-29T07:13:59;7.80;;;2.60;;
17598;SDS011;8918;52.092;5.232;2023-12-29T07:16:24;9.00;;;2.60;;
17598;SDS011;8918;52.092;5.232;2023-12-29T07:18:50;6.00;;;2.60;;
17598;SDS011;8918;52.092;5.232;2023-12-29T07:21:17;6.43;;;2.40;;
17598;SDS011;8918;52.092;5.232;2023-12-29T07:23:43;8.30;;;2.50;;
17598;SDS011;8918;52.092;5.232;2023-12-29T07:26:08;9.23;;;2.80;;
17598;SDS011;8918;52.092;5.232;2023-12-29T07:28:34;9.43;;;2.40;;
17598;SDS011;8918;52.092;5.232;2023-12-29T07:31:00;6.57;;;2.33;;
17598;SDS011;8918;52.092;5.232;2023-12-29T07:33:26;8.33;;;2.60;;
17598;SDS011;8918;52.092;5.232;2023-12-29T07:35:52;6.63;;;2.50;;
17598;SDS011;8918;52.092;5.232;2023-12-29T07:38:18;8.37;;;2.70;;
17598;SDS011;8918;52.092;5.232;2023-12-29T07:40:44;9.77;;;2.70;;
17598;SDS011;8918;52.092;5.232;2023-12-29T07:43:13;11.90;;;2.70;;
17598;SDS011;8918;52.092;5.232;2023-12-29T07:45:39;7.67;;;3.00;;
17598;SDS011;8918;52.092;5.232;2023-12-29T07:48:04;7.77;;;3.00;;
17598;SDS011;8918;52.092;5.232;2023-12-29T07:50:31;10.27;;;2.97;;
17598;SDS011;8918;52.092;5.232;2023-12-29T07:52:56;6.73;;;2.80;;
17598;SDS011;8918;52.092;5.232;2023-12-29T07:55:22;9.70;;;3.27;;
17598;SDS011;8918;52.092;5.232;2023-12-29T07:57:48;10.40;;;3.23;;
17598;SDS011;8918;52.092;5.232;2023-12-29T08:00:17;8.57;;;2.77;;
17598;SDS011;8918;52.092;5.232;2023-12-29T08:02:42;8.23;;;3.10;;
17598;SDS011;8918;52.092;5.232;2023-12-29T08:05:08;10.13;;;3.00;;
17598;SDS011;8918;52.092;5.232;2023-12-29T08:07:34;7.60;;;2.80;;
17598;SDS011;8918;52.092;5.232;2023-12-29T08:10:02;7.80;;;2.60;;
17598;SDS011;8918;52.092;5.232;2023-12-29T08:12:29;6.50;;;2.60;;
17598;SDS011;8918;52.092;5.232;2023-12-29T08:14:55;7.90;;;2.50;;
17598;SDS011;8918;52.092;5.232;2023-12-29T08:17:21;7.53;;;2.73;;
17598;SDS011;8918;52.092;5.232;2023-12-29T08:19:47;5.80;;;2.23;;
17598;SDS011;8918;52.092;5.232;2023-12-29T08:22:13;7.80;;;3.43;;
17598;SDS011;8918;52.092;5.232;2023-12-29T08:24:41;6.13;;;2.90;;
17598;SDS011;8918;52.092;5.232;2023-12-29T08:27:08;4.83;;;2.90;;
17598;SDS011;8918;52.092;5.232;2023-12-29T08:29:35;10.30;;;3.23;;
17598;SDS011;8918;52.092;5.232;2023-12-29T08:32:01;8.77;;;3.00;;
17598;SDS011;8918;52.092;5.232;2023-12-29T08:34:27;7.87;;;2.83;;
17598;SDS011;8918;52.092;5.232;2023-12-29T08:36:53;9.23;;;2.80;;
17598;SDS011;8918;52.092;5.232;2023-12-29T08:39:18;4.73;;;2.33;;
17598;SDS011;8918;52.092;5.232;2023-12-29T08:41:44;7.93;;;2.90;;
17598;SDS011;8918;52.092;5.232;2023-12-29T08:44:11;5.43;;;2.90;;
17598;SDS011;8918;52.092;5.232;2023-12-29T08:46:37;10.40;;;3.27;;
17598;SDS011;8918;52.092;5.232;2023-12-29T08:49:02;6.93;;;2.47;;
17598;SDS011;8918;52.092;5.232;2023-12-29T08:51:28;10.57;;;3.17;;
17598;SDS011;8918;52.092;5.232;2023-12-29T08:53:54;7.33;;;2.57;;
17598;SDS011;8918;52.092;5.232;2023-12-29T08:56:19;10.03;;;4.47;;
17598;SDS011;8918;52.092;5.232;2023-12-29T08:58:45;8.37;;;2.40;;
17598;SDS011;8918;52.092;5.232;2023-12-29T09:01:11;4.70;;;2.63;;
17598;SDS011;8918;52.092;5.232;2023-12-29T09:03:37;7.50;;;2.43;;
17598;SDS011;8918;52.092;5.232;2023-12-29T09:06:03;5.47;;;2.13;;
17598;SDS011;8918;52.092;5.232;2023-12-29T09:08:29;6.17;;;2.40;;
17598;SDS011;8918;52.092;5.232;2023-12-29T09:10:55;5.37;;;2.10;;
17598;SDS011;8918;52.092;5.232;2023-12-29T09:13:21;8.47;;;2.30;;
17598;SDS011;8918;52.092;5.232;2023-12-29T09:15:50;5.27;;;2.03;;
17598;SDS011;8918;52.092;5.232;2023-12-29T09:18:15;4.47;;;1.80;;
17598;SDS011;8918;52.092;5.232;2023-12-29T09:20:42;6.57;;;2.10;;
17598;SDS011;8918;52.092;5.232;2023-12-29T09:23:08;6.87;;;2.30;;
17598;SDS011;8918;52.092;5.232;2023-12-29T09:25:33;4.73;;;2.30;;
17598;SDS011;8918;52.092;5.232;2023-12-29T09:27:59;9.10;;;2.03;;
17598;SDS011;8918;52.092;5.232;2023-12-29T09:30:25;4.77;;;1.80;;
17598;SDS011;8918;52.092;5.232;2023-12-29T09:32:50;6.53;;;2.13;;
17598;SDS011;8918;52.092;5.232;2023-12-29T09:35:16;9.07;;;2.37;;
17598;SDS011;8918;52.092;5.232;2023-12-29T09:37:42;5.67;;;1.90;;
17598;SDS011;8918;52.092;5.232;2023-12-29T09:40:08;9.93;;;2.50;;
17598;SDS011;8918;52.092;5.232;2023-12-29T09:42:35;8.73;;;2.20;;
17598;SDS011;8918;52.092;5.232;2023-12-29T09:45:03;8.10;;;2.03;;
17598;SDS011;8918;52.092;5.232;2023-12-29T09:47:35;6.87;;;2.30;;
17598;SDS011;8918;52.092;5.232;2023-12-29T09:50:09;9.37;;;2.10;;
17598;SDS011;8918;52.092;5.232;2023-12-29T09:52:36;5.97;;;2.07;;
17598;SDS011;8918;52.092;5.232;2023-12-29T09:55:04;5.93;;;1.87;;
17598;SDS011;8918;52.092;5.232;2023-12-29T09:57:32;6.73;;;1.73;;
17598;SDS011;8918;52.092;5.232;2023-12-29T09:59:58;6.30;;;2.00;;
17598;SDS011;8918;52.092;5.232;2023-12-29T10:02:24;5.60;;;1.93;;
17598;SDS011;8918;52.092;5.232;2023-12-29T10:04:50;7.50;;;2.03;;
17598;SDS011;8918;52.092;5.232;2023-12-29T10:07:20;4.83;;;2.03;;
17598;SDS011;8918;52.092;5.232;2023-12-29T10:09:59;6.13;;;1.90;;
17598;SDS011;8918;52.092;5.232;2023-12-29T10:12:27;4.20;;;1.90;;
17598;SDS011;8918;52.092;5.232;2023-12-29T10:15:12;8.53;;;2.10;;
17598;SDS011;8918;52.092;5.232;2023-12-29T10:17:52;4.33;;;1.77;;
17598;SDS011;8918;52.092;5.232;2023-12-29T10:20:33;5.07;;;1.70;;
17598;SDS011;8918;52.092;5.232;2023-12-29T10:23:11;7.67;;;2.10;;
17598;SDS011;8918;52.092;5.232;2023-12-29T10:25:43;7.13;;;2.00;;
17598;SDS011;8918;52.092;5.232;2023-12-29T10:28:09;4.97;;;1.87;;
17598;SDS011;8918;52.092;5.232;2023-12-29T10:30:35;8.20;;;2.30;;
17598;SDS011;8918;52.092;5.232;2023-12-29T10:33:02;6.87;;;2.03;;
17598;SDS011;8918;52.092;5.232;2023-12-29T10:35:29;6.30;;;1.90;;
17598;SDS011;8918;52.092;5.232;2023-12-29T10:38:07;6.57;;;2.13;;
17598;SDS011;8918;52.092;5.232;2023-12-29T10:40:34;4.97;;;1.80;;
17598;SDS011;8918;52.092;5.232;2023-12-29T10:43:00;6.33;;;1.90;;
17598;SDS011;8918;52.092;5.232;2023-12-29T10:45:31;5.53;;;1.97;;
17598;SDS011;8918;52.092;5.232;2023-12-29T10:47:57;7.87;;;2.07;;
17598;SDS011;8918;52.092;5.232;2023-12-29T10:50:25;10.13;;;2.07;;
17598;SDS011;8918;52.092;5.232;2023-12-29T10:52:52;7.13;;;1.87;;
17598;SDS011;8918;52.092;5.232;2023-12-29T10:55:41;7.57;;;1.60;;
17598;SDS011;8918;52.092;5.232;2023-12-29T10:58:07;5.90;;;1.63;;
17598;SDS011;8918;52.092;5.232;2023-12-29T11:00:33;3.03;;;1.40;;
17598;SDS011;8918;52.092;5.232;2023-12-29T11:02:58;4.37;;;1.80;;
17598;SDS011;8918;52.092;5.232;2023-12-29T11:05:25;5.20;;;1.57;;
17598;SDS011;8918;52.092;5.232;2023-12-29T11:07:51;5.87;;;1.90;;
17598;SDS011;8918;52.092;5.232;2023-12-29T11:10:19;7.90;;;1.60;;
17598;SDS011;8918;52.092;5.232;2023-12-29T11:12:48;6.40;;;1.67;;
17598;SDS011;8918;52.092;5.232;2023-12-29T11:15:15;7.70;;;1.70;;
17598;SDS011;8918;52.092;5.232;2023-12-29T11:17:41;7.23;;;2.07;;
17598;SDS011;8918;52.092;5.232;2023-12-29T11:20:14;6.70;;;1.53;;
17598;SDS011;8918;52.092;5.232;2023-12-29T11:22:47;10.83;;;1.70;;
17598;SDS011;8918;52.092;5.232;2023-12-29T11:25:13;6.13;;;1.50;;
17598;SDS011;8918;52.092;5.232;2023-12-29T11:27:40;8.60;;;1.93;;
17598;SDS011;8918;52.092;5.232;2023-12-29T11:30:07;7.33;;;1.57;;
17598;SDS011;8918;52.092;5.232;2023-12-29T11:32:39;6.90;;;1.70;;
17598;SDS011;8918;52.092;5.232;2023-12-29T11:38:39;11.23;;;2.03;;
17598;SDS011;8918;52.092;5.232;2023-12-29T11:43:44;10.87;;;2.13;;
17598;SDS011;8918;52.092;5.232;2023-12-29T11:49:03;9.53;;;1.90;;
17598;SDS011;8918;52.092;5.232;2023-12-29T11:51:42;7.00;;;1.63;;
17598;SDS011;8918;52.092;5.232;2023-12-29T11:54:09;10.43;;;2.00;;
17598;SDS011;8918;52.092;5.232;2023-12-29T11:56:36;10.27;;;2.30;;
17598;SDS011;8918;52.092;5.232;2023-12-29T11:59:22;10.60;;;2.10;;
17598;SDS011;8918;52.092;5.232;2023-12-29T12:01:57;12.33;;;2.60;;
17598;SDS011;8918;52.092;5.232;2023-12-29T12:09:38;10.40;;;2.33;;
17598;SDS011;8918;52.092;5.232;2023-12-29T12:12:04;11.57;;;2.23;;
17598;SDS011;8918;52.092;5.232;2023-12-29T12:14:43;10.97;;;2.27;;
17598;SDS011;8918;52.092;5.232;2023-12-29T12:17:10;11.87;;;2.50;;
17598;SDS011;8918;52.092;5.232;2023-12-29T12:19:36;9.77;;;2.60;;
17598;SDS011;8918;52.092;5.232;2023-12-29T12:22:02;10.10;;;2.53;;
17598;SDS011;8918;52.092;5.232;2023-12-29T12:24:28;10.93;;;2.57;;
17598;SDS011;8918;52.092;5.232;2023-12-29T12:26:54;14.00;;;2.40;;
17598;SDS011;8918;52.092;5.232;2023-12-29T12:29:20;12.00;;;2.30;;
17598;SDS011;8918;52.092;5.232;2023-12-29T12:31:53;8.00;;;2.27;;
17598;SDS011;8918;52.092;5.232;2023-12-29T12:34:22;10.30;;;2.27;;
17598;SDS011;8918;52.092;5.232;2023-12-29T12:36:51;9.00;;;2.13;;
17598;SDS011;8918;52.092;5.232;2023-12-29T12:39:17;10.50;;;2.57;;
17598;SDS011;8918;52.092;5.232;2023-12-29T12:41:43;12.57;;;2.70;;
17598;SDS011;8918;52.092;5.232;2023-12-29T12:44:10;13.13;;;2.27;;
17598;SDS011;8918;52.092;5.232;2023-12-29T12:46:59;14.67;;;2.60;;
17598;SDS011;8918;52.092;5.232;2023-12-29T12:49:24;12.87;;;2.60;;
17598;SDS011;8918;52.092;5.232;2023-12-29T12:51:50;11.17;;;2.80;;
17598;SDS011;8918;52.092;5.232;2023-12-29T12:54:18;12.57;;;3.20;;
17598;SDS011;8918;52.092;5.232;2023-12-29T12:56:44;8.73;;;2.37;;
17598;SDS011;8918;52.092;5.232;2023-12-29T12:59:11;13.27;;;2.23;;
17598;SDS011;8918;52.092;5.232;2023-12-29T13:01:38;20.20;;;2.70;;
17598;SDS011;8918;52.092;5.232;2023-12-29T13:04:04;12.30;;;2.90;;
17598;SDS011;8918;52.092;5.232;2023-12-29T13:06:32;13.40;;;2.80;;
17598;SDS011;8918;52.092;5.232;2023-12-29T13:08:59;14.50;;;2.73;;
17598;SDS011;8918;52.092;5.232;2023-12-29T13:11:27;11.30;;;2.33;;
17598;SDS011;8918;52.092;5.232;2023-12-29T13:13:52;11.43;;;2.67;;
17598;SDS011;8918;52.092;5.232;2023-12-29T13:16:32;10.87;;;2.60;;
17598;SDS011;8918;52.092;5.232;2023-12-29T13:19:21;14.93;;;2.53;;
17598;SDS011;8918;52.092;5.232;2023-12-29T13:21:52;13.63;;;2.37;;
17598;SDS011;8918;52.092;5.232;2023-12-29T13:24:20;14.50;;;3.37;;
17598;SDS011;8918;52.092;5.232;2023-12-29T13:26:50;11.40;;;2.13;;
17598;SDS011;8918;52.092;5.232;2023-12-29T13:29:18;10.67;;;2.60;;
17598;SDS011;8918;52.092;5.232;2023-12-29T13:31:48;10.43;;;2.20;;
17598;SDS011;8918;52.092;5.232;2023-12-29T13:34:17;9.57;;;2.27;;
17598;SDS011;8918;52.092;5.232;2023-12-29T13:37:00;9.60;;;2.50;;
17598;SDS011;8918;52.092;5.232;2023-12-29T13:39:30;11.43;;;2.47;;
17598;SDS011;8918;52.092;5.232;2023-12-29T13:42:23;10.80;;;2.13;;
17598;SDS011;8918;52.092;5.232;2023-12-29T13:44:53;9.57;;;2.30;;
17598;SDS011;8918;52.092;5.232;2023-12-29T13:47:20;13.70;;;2.83;;
17598;SDS011;8918;52.092;5.232;2023-12-29T13:49:46;12.10;;;2.83;;
17598;SDS011;8918;52.092;5.232;2023-12-29T13:52:13;13.83;;;2.53;;
17598;SDS011;8918;52.092;5.232;2023-12-29T13:54:41;12.37;;;2.37;;
17598;SDS011;8918;52.092;5.232;2023-12-29T13:57:10;11.53;;;2.53;;
17598;SDS011;8918;52.092;5.232;2023-12-29T13:59:36;12.63;;;2.90;;
17598;SDS011;8918;52.092;5.232;2023-12-29T14:05:14;11.03;;;2.40;;
17598;SDS011;8918;52.092;5.232;2023-12-29T14:07:51;12.27;;;2.37;;
17598;SDS011;8918;52.092;5.232;2023-12-29T14:10:31;11.27;;;2.67;;
17598;SDS011;8918;52.092;5.232;2023-12-29T14:13:07;15.60;;;2.83;;
17598;SDS011;8918;52.092;5.232;2023-12-29T14:15:41;11.73;;;2.63;;
17598;SDS011;8918;52.092;5.232;2023-12-29T14:20:41;10.27;;;2.67;;
17598;SDS011;8918;52.092;5.232;2023-12-29T14:23:07;13.40;;;2.70;;
17598;SDS011;8918;52.092;5.232;2023-12-29T14:25:34;13.73;;;2.80;;
17598;SDS011;8918;52.092;5.232;2023-12-29T14:28:13;13.97;;;2.80;;
17598;SDS011;8918;52.092;5.232;2023-12-29T14:30:40;15.30;;;3.13;;
17598;SDS011;8918;52.092;5.232;2023-12-29T14:33:06;13.60;;;2.57;;
17598;SDS011;8918;52.092;5.232;2023-12-29T14:35:32;13.73;;;3.07;;
17598;SDS011;8918;52.092;5.232;2023-12-29T14:37:58;18.60;;;2.90;;
17598;SDS011;8918;52.092;5.232;2023-12-29T14:40:24;17.07;;;2.70;;
17598;SDS011;8918;52.092;5.232;2023-12-29T14:42:49;11.20;;;2.70;;
17598;SDS011;8918;52.092;5.232;2023-12-29T14:45:15;13.20;;;3.03;;
17598;SDS011;8918;52.092;5.232;2023-12-29T14:47:40;10.63;;;3.40;;
17598;SDS011;8918;52.092;5.232;2023-12-29T14:50:06;15.60;;;3.10;;
17598;SDS011;8918;52.092;5.232;2023-12-29T14:52:32;10.63;;;2.53;;
17598;SDS011;8918;52.092;5.232;2023-12-29T14:54:57;14.47;;;2.80;;
17598;SDS011;8918;52.092;5.232;2023-12-29T14:57:23;15.23;;;2.70;;
17598;SDS011;8918;52.092;5.232;2023-12-29T14:59:49;16.47;;;2.97;;
17598;SDS011;8918;52.092;5.232;2023-12-29T15:02:14;13.67;;;2.93;;
17598;SDS011;8918;52.092;5.232;2023-12-29T15:04:40;18.33;;;3.00;;
17598;SDS011;8918;52.092;5.232;2023-12-29T15:07:06;15.93;;;3.43;;
17598;SDS011;8918;52.092;5.232;2023-12-29T15:09:32;17.90;;;3.77;;
17598;SDS011;8918;52.092;5.232;2023-12-29T15:11:59;15.67;;;3.10;;
17598;SDS011;8918;52.092;5.232;2023-12-29T15:14:24;20.23;;;4.43;;
17598;SDS011;8918;52.092;5.232;2023-12-29T15:16:50;17.90;;;3.50;;